sensor_id;sensor_type;location;lat;lon;timestamp;P1;durP1;ratioP1;P2;durP2;ratioP2
21266;SDS011;10791;53.108;18.326;2022-09-09T00:12:32;6.80;;;4.77;;
21266;SDS011;10791;53.108;18.326;2022-09-09T00:18:01;9.97;;;5.60;;
21266;SDS011;10791;53.108;18.326;2022-09-09T00:23:28;10.83;;;6.27;;
21266;SDS011;10791;53.108;18.326;2022-09-09T00:28:36;10.27;;;5.77;;
21266;SDS011;10791;53.108;18.326;2022-09-09T00:34:00;9.13;;;6.17;;
21266;SDS011;10791;53.108;18.326;2022-09-09T00:39:18;9.00;;;5.93;;
21266;SDS011;10791;53.108;18.326;2022-09-09T00:44:35;9.73;;;5.77;;
21266;SDS011;10791;53.108;18.326;2022-09-09T01:00:46;9.17;;;6.20;;
21266;SDS011;10791;53.108;18.326;2022-09-09T01:06:13;10.70;;;6.77;;
21266;SDS011;10791;53.108;18.326;2022-09-09T01:28:13;15.00;;;6.80;;
21266;SDS011;10791;53.108;18.326;2022-09-09T01:33:25;9.20;;;6.50;;
21266;SDS011;10791;53.108;18.326;2022-09-09T01:38:30;9.13;;;6.40;;
21266;SDS011;10791;53.108;18.326;2022-09-09T01:43:38;10.53;;;6.97;;
21266;SDS011;10791;53.108;18.326;2022-09-09T01:48:45;13.50;;;7.20;;
21266;SDS011;10791;53.108;18.326;2022-09-09T01:53:49;11.83;;;7.87;;
21266;SDS011;10791;53.108;18.326;2022-09-09T01:59:00;9.87;;;6.97;;
21266;SDS011;10791;53.108;18.326;2022-09-09T02:09:32;9.20;;;7.97;;
21266;SDS011;10791;53.108;18.326;2022-09-09T02:14:40;15.23;;;9.27;;
21266;SDS011;10791;53.108;18.326;2022-09-09T02:19:54;12.77;;;8.83;;
21266;SDS011;10791;53.108;18.326;2022-09-09T02:25:09;13.10;;;9.60;;
21266;SDS011;10791;53.108;18.326;2022-09-09T02:30:17;13.17;;;10.17;;
21266;SDS011;10791;53.108;18.326;2022-09-09T02:35:23;14.23;;;11.17;;
21266;SDS011;10791;53.108;18.326;2022-09-09T02:40:31;14.77;;;11.47;;
21266;SDS011;10791;53.108;18.326;2022-09-09T02:51:24;17.00;;;12.57;;
21266;SDS011;10791;53.108;18.326;2022-09-09T02:56:41;17.17;;;12.17;;
21266;SDS011;10791;53.108;18.326;2022-09-09T03:01:51;15.30;;;11.63;;
21266;SDS011;10791;53.108;18.326;2022-09-09T03:06:57;13.63;;;11.43;;
21266;SDS011;10791;53.108;18.326;2022-09-09T03:12:04;14.00;;;10.73;;
21266;SDS011;10791;53.108;18.326;2022-09-09T03:17:09;12.53;;;10.63;;
21266;SDS011;10791;53.108;18.326;2022-09-09T03:22:13;15.53;;;11.33;;
21266;SDS011;10791;53.108;18.326;2022-09-09T03:27:18;12.60;;;10.03;;
21266;SDS011;10791;53.108;18.326;2022-09-09T03:32:23;13.60;;;10.57;;
21266;SDS011;10791;53.108;18.326;2022-09-09T03:37:29;14.17;;;10.47;;
21266;SDS011;10791;53.108;18.326;2022-09-09T03:42:36;14.37;;;10.83;;
21266;SDS011;10791;53.108;18.326;2022-09-09T03:47:40;13.33;;;10.03;;
21266;SDS011;10791;53.108;18.326;2022-09-09T03:52:44;14.93;;;10.73;;
21266;SDS011;10791;53.108;18.326;2022-09-09T03:57:51;12.60;;;9.63;;
21266;SDS011;10791;53.108;18.326;2022-09-09T04:02:55;14.57;;;10.63;;
21266;SDS011;10791;53.108;18.326;2022-09-09T04:08:00;15.83;;;10.97;;
21266;SDS011;10791;53.108;18.326;2022-09-09T04:13:04;15.20;;;11.40;;
21266;SDS011;10791;53.108;18.326;2022-09-09T04:18:09;15.00;;;11.00;;
21266;SDS011;10791;53.108;18.326;2022-09-09T04:23:20;15.13;;;10.67;;
21266;SDS011;10791;53.108;18.326;2022-09-09T04:28:29;13.73;;;10.60;;
21266;SDS011;10791;53.108;18.326;2022-09-09T04:33:35;14.50;;;10.13;;
21266;SDS011;10791;53.108;18.326;2022-09-09T04:38:41;14.73;;;10.03;;
21266;SDS011;10791;53.108;18.326;2022-09-09T04:43:47;13.97;;;10.80;;
21266;SDS011;10791;53.108;18.326;2022-09-09T04:48:51;19.13;;;11.13;;
21266;SDS011;10791;53.108;18.326;2022-09-09T04:53:55;15.13;;;11.23;;
21266;SDS011;10791;53.108;18.326;2022-09-09T04:59:00;14.20;;;11.40;;
21266;SDS011;10791;53.108;18.326;2022-09-09T05:04:07;17.87;;;11.47;;
21266;SDS011;10791;53.108;18.326;2022-09-09T05:09:11;15.77;;;10.90;;
21266;SDS011;10791;53.108;18.326;2022-09-09T05:14:15;16.37;;;12.27;;
21266;SDS011;10791;53.108;18.326;2022-09-09T05:19:20;17.90;;;12.70;;
21266;SDS011;10791;53.108;18.326;2022-09-09T05:24:23;19.50;;;12.23;;
21266;SDS011;10791;53.108;18.326;2022-09-09T05:29:28;23.77;;;12.73;;
21266;SDS011;10791;53.108;18.326;2022-09-09T05:34:32;18.90;;;13.87;;
21266;SDS011;10791;53.108;18.326;2022-09-09T05:39:36;22.67;;;15.53;;
21266;SDS011;10791;53.108;18.326;2022-09-09T05:44:41;20.73;;;15.20;;
21266;SDS011;10791;53.108;18.326;2022-09-09T05:49:47;26.07;;;16.07;;
21266;SDS011;10791;53.108;18.326;2022-09-09T05:54:52;25.20;;;15.40;;
21266;SDS011;10791;53.108;18.326;2022-09-09T05:59:58;24.20;;;16.20;;
21266;SDS011;10791;53.108;18.326;2022-09-09T06:05:03;23.43;;;16.03;;
21266;SDS011;10791;53.108;18.326;2022-09-09T06:10:13;28.43;;;16.07;;
21266;SDS011;10791;53.108;18.326;2022-09-09T06:15:17;25.27;;;16.47;;
21266;SDS011;10791;53.108;18.326;2022-09-09T06:20:20;29.20;;;17.17;;
21266;SDS011;10791;53.108;18.326;2022-09-09T06:25:24;27.00;;;16.53;;
21266;SDS011;10791;53.108;18.326;2022-09-09T06:30:28;28.63;;;16.67;;
21266;SDS011;10791;53.108;18.326;2022-09-09T06:35:32;29.43;;;16.93;;
21266;SDS011;10791;53.108;18.326;2022-09-09T06:40:35;31.10;;;16.73;;
21266;SDS011;10791;53.108;18.326;2022-09-09T06:45:39;26.63;;;17.13;;
21266;SDS011;10791;53.108;18.326;2022-09-09T06:50:43;29.03;;;17.07;;
21266;SDS011;10791;53.108;18.326;2022-09-09T06:55:49;32.00;;;17.77;;
21266;SDS011;10791;53.108;18.326;2022-09-09T07:01:00;31.10;;;17.77;;
21266;SDS011;10791;53.108;18.326;2022-09-09T07:06:20;27.70;;;16.67;;
21266;SDS011;10791;53.108;18.326;2022-09-09T07:11:28;31.63;;;17.70;;
21266;SDS011;10791;53.108;18.326;2022-09-09T07:16:34;27.90;;;16.67;;
21266;SDS011;10791;53.108;18.326;2022-09-09T07:21:42;29.67;;;16.67;;
21266;SDS011;10791;53.108;18.326;2022-09-09T07:26:46;27.90;;;16.53;;
21266;SDS011;10791;53.108;18.326;2022-09-09T07:31:50;29.80;;;17.27;;
21266;SDS011;10791;53.108;18.326;2022-09-09T07:36:55;33.17;;;18.03;;
21266;SDS011;10791;53.108;18.326;2022-09-09T07:42:00;29.47;;;17.63;;
21266;SDS011;10791;53.108;18.326;2022-09-09T07:47:05;31.10;;;17.83;;
21266;SDS011;10791;53.108;18.326;2022-09-09T07:52:08;32.53;;;19.17;;
21266;SDS011;10791;53.108;18.326;2022-09-09T07:57:15;34.73;;;19.17;;
21266;SDS011;10791;53.108;18.326;2022-09-09T08:02:23;38.33;;;18.87;;
21266;SDS011;10791;53.108;18.326;2022-09-09T08:07:31;36.87;;;19.27;;
21266;SDS011;10791;53.108;18.326;2022-09-09T08:12:36;38.83;;;21.07;;
21266;SDS011;10791;53.108;18.326;2022-09-09T08:17:39;35.37;;;21.43;;
21266;SDS011;10791;53.108;18.326;2022-09-09T08:22:43;39.27;;;22.17;;
21266;SDS011;10791;53.108;18.326;2022-09-09T08:27:47;36.27;;;19.83;;
21266;SDS011;10791;53.108;18.326;2022-09-09T08:32:52;37.53;;;20.80;;
21266;SDS011;10791;53.108;18.326;2022-09-09T08:37:58;40.33;;;21.23;;
21266;SDS011;10791;53.108;18.326;2022-09-09T08:43:11;39.90;;;20.30;;
21266;SDS011;10791;53.108;18.326;2022-09-09T08:53:44;38.90;;;22.03;;
21266;SDS011;10791;53.108;18.326;2022-09-09T08:58:58;35.90;;;21.70;;
21266;SDS011;10791;53.108;18.326;2022-09-09T09:04:15;41.67;;;21.87;;
21266;SDS011;10791;53.108;18.326;2022-09-09T09:15:09;43.63;;;23.57;;
21266;SDS011;10791;53.108;18.326;2022-09-09T09:20:27;39.47;;;22.17;;
21266;SDS011;10791;53.108;18.326;2022-09-09T09:25:50;39.17;;;22.40;;
21266;SDS011;10791;53.108;18.326;2022-09-09T09:31:01;45.90;;;25.00;;
21266;SDS011;10791;53.108;18.326;2022-09-09T09:36:13;43.50;;;24.30;;
21266;SDS011;10791;53.108;18.326;2022-09-09T09:41:32;38.07;;;23.07;;
21266;SDS011;10791;53.108;18.326;2022-09-09T09:46:44;41.80;;;23.47;;
21266;SDS011;10791;53.108;18.326;2022-09-09T09:51:49;44.80;;;25.03;;
21266;SDS011;10791;53.108;18.326;2022-09-09T09:56:52;40.77;;;23.87;;
21266;SDS011;10791;53.108;18.326;2022-09-09T10:02:05;43.90;;;24.67;;
21266;SDS011;10791;53.108;18.326;2022-09-09T10:07:30;42.60;;;24.07;;
21266;SDS011;10791;53.108;18.326;2022-09-09T10:40:33;41.20;;;24.77;;
21266;SDS011;10791;53.108;18.326;2022-09-09T11:02:17;34.92;;;20.77;;
21266;SDS011;10791;53.108;18.326;2022-09-09T11:07:47;37.87;;;20.77;;
21266;SDS011;10791;53.108;18.326;2022-09-09T11:12:53;35.45;;;20.27;;
21266;SDS011;10791;53.108;18.326;2022-09-09T11:18:21;37.70;;;20.85;;
21266;SDS011;10791;53.108;18.326;2022-09-09T11:23:29;38.10;;;20.60;;
21266;SDS011;10791;53.108;18.326;2022-09-09T11:35:05;34.80;;;21.13;;
21266;SDS011;10791;53.108;18.326;2022-09-09T11:40:23;33.45;;;19.70;;
21266;SDS011;10791;53.108;18.326;2022-09-09T11:45:29;29.90;;;19.65;;
21266;SDS011;10791;53.108;18.326;2022-09-09T11:50:40;25.98;;;16.77;;
21266;SDS011;10791;53.108;18.326;2022-09-09T11:55:43;27.65;;;16.85;;
21266;SDS011;10791;53.108;18.326;2022-09-09T12:00:54;28.65;;;17.05;;
21266;SDS011;10791;53.108;18.326;2022-09-09T12:11:49;28.23;;;17.63;;
21266;SDS011;10791;53.108;18.326;2022-09-09T12:16:53;27.25;;;17.40;;
21266;SDS011;10791;53.108;18.326;2022-09-09T12:22:03;27.63;;;17.52;;
21266;SDS011;10791;53.108;18.326;2022-09-09T12:27:36;32.10;;;18.58;;
21266;SDS011;10791;53.108;18.326;2022-09-09T12:32:58;25.10;;;16.77;;
21266;SDS011;10791;53.108;18.326;2022-09-09T12:38:03;27.20;;;15.20;;
21266;SDS011;10791;53.108;18.326;2022-09-09T12:43:20;30.33;;;17.20;;
21266;SDS011;10791;53.108;18.326;2022-09-09T12:48:47;26.55;;;16.92;;
21266;SDS011;10791;53.108;18.326;2022-09-09T12:53:50;23.58;;;16.70;;
21266;SDS011;10791;53.108;18.326;2022-09-09T12:58:55;23.65;;;16.23;;
21266;SDS011;10791;53.108;18.326;2022-09-09T13:04:16;23.25;;;16.27;;
21266;SDS011;10791;53.108;18.326;2022-09-09T13:09:24;27.92;;;17.48;;
21266;SDS011;10791;53.108;18.326;2022-09-09T13:14:35;27.20;;;16.73;;
21266;SDS011;10791;53.108;18.326;2022-09-09T13:19:48;21.83;;;14.55;;
21266;SDS011;10791;53.108;18.326;2022-09-09T13:30:25;24.27;;;15.40;;
21266;SDS011;10791;53.108;18.326;2022-09-09T13:41:03;22.23;;;15.50;;
21266;SDS011;10791;53.108;18.326;2022-09-09T13:51:34;22.65;;;15.15;;
21266;SDS011;10791;53.108;18.326;2022-09-09T13:56:43;23.92;;;14.60;;
21266;SDS011;10791;53.108;18.326;2022-09-09T14:01:47;21.55;;;15.45;;
21266;SDS011;10791;53.108;18.326;2022-09-09T14:06:56;20.98;;;14.57;;
21266;SDS011;10791;53.108;18.326;2022-09-09T14:12:01;24.45;;;15.32;;
21266;SDS011;10791;53.108;18.326;2022-09-09T14:17:08;22.83;;;15.55;;
21266;SDS011;10791;53.108;18.326;2022-09-09T14:22:14;20.63;;;15.13;;
21266;SDS011;10791;53.108;18.326;2022-09-09T14:27:18;23.85;;;15.32;;
21266;SDS011;10791;53.108;18.326;2022-09-09T14:32:24;22.38;;;15.55;;
21266;SDS011;10791;53.108;18.326;2022-09-09T14:37:31;25.58;;;17.98;;
21266;SDS011;10791;53.108;18.326;2022-09-09T14:42:38;22.75;;;17.02;;
21266;SDS011;10791;53.108;18.326;2022-09-09T14:47:44;21.92;;;16.42;;
21266;SDS011;10791;53.108;18.326;2022-09-09T14:52:47;24.95;;;17.08;;
21266;SDS011;10791;53.108;18.326;2022-09-09T14:57:51;24.95;;;17.00;;
21266;SDS011;10791;53.108;18.326;2022-09-09T15:02:56;24.98;;;17.67;;
21266;SDS011;10791;53.108;18.326;2022-09-09T15:07:59;27.13;;;18.33;;
21266;SDS011;10791;53.108;18.326;2022-09-09T15:13:04;30.13;;;20.27;;
21266;SDS011;10791;53.108;18.326;2022-09-09T15:18:08;30.05;;;19.30;;
21266;SDS011;10791;53.108;18.326;2022-09-09T15:23:12;27.55;;;19.58;;
21266;SDS011;10791;53.108;18.326;2022-09-09T15:28:17;29.23;;;19.33;;
21266;SDS011;10791;53.108;18.326;2022-09-09T15:33:21;28.08;;;19.45;;
21266;SDS011;10791;53.108;18.326;2022-09-09T15:38:25;27.30;;;18.80;;
21266;SDS011;10791;53.108;18.326;2022-09-09T15:43:31;27.33;;;19.38;;
21266;SDS011;10791;53.108;18.326;2022-09-09T15:48:34;30.63;;;18.95;;
21266;SDS011;10791;53.108;18.326;2022-09-09T15:53:37;27.58;;;18.92;;
21266;SDS011;10791;53.108;18.326;2022-09-09T15:58:44;28.40;;;18.67;;
21266;SDS011;10791;53.108;18.326;2022-09-09T16:03:48;26.15;;;19.00;;
21266;SDS011;10791;53.108;18.326;2022-09-09T16:08:53;24.02;;;17.75;;
21266;SDS011;10791;53.108;18.326;2022-09-09T16:13:58;23.65;;;17.08;;
21266;SDS011;10791;53.108;18.326;2022-09-09T16:19:04;25.13;;;17.98;;
21266;SDS011;10791;53.108;18.326;2022-09-09T16:24:10;24.08;;;17.10;;
21266;SDS011;10791;53.108;18.326;2022-09-09T16:29:16;26.80;;;18.73;;
21266;SDS011;10791;53.108;18.326;2022-09-09T16:34:21;27.15;;;18.20;;
21266;SDS011;10791;53.108;18.326;2022-09-09T16:39:25;31.20;;;19.70;;
21266;SDS011;10791;53.108;18.326;2022-09-09T16:44:28;27.20;;;19.60;;
21266;SDS011;10791;53.108;18.326;2022-09-09T16:49:32;28.92;;;20.00;;
21266;SDS011;10791;53.108;18.326;2022-09-09T16:54:37;29.90;;;21.27;;
21266;SDS011;10791;53.108;18.326;2022-09-09T16:59:40;28.77;;;20.57;;
21266;SDS011;10791;53.108;18.326;2022-09-09T17:04:44;30.23;;;20.37;;
21266;SDS011;10791;53.108;18.326;2022-09-09T17:09:47;29.37;;;21.50;;
21266;SDS011;10791;53.108;18.326;2022-09-09T17:14:51;31.83;;;21.63;;
21266;SDS011;10791;53.108;18.326;2022-09-09T17:19:54;33.33;;;21.53;;
21266;SDS011;10791;53.108;18.326;2022-09-09T17:24:58;34.13;;;21.60;;
21266;SDS011;10791;53.108;18.326;2022-09-09T17:30:03;33.03;;;21.13;;
21266;SDS011;10791;53.108;18.326;2022-09-09T17:35:07;34.33;;;22.03;;
21266;SDS011;10791;53.108;18.326;2022-09-09T17:40:11;31.90;;;21.10;;
21266;SDS011;10791;53.108;18.326;2022-09-09T17:45:16;32.10;;;20.87;;
21266;SDS011;10791;53.108;18.326;2022-09-09T17:50:19;30.87;;;20.33;;
21266;SDS011;10791;53.108;18.326;2022-09-09T17:55:23;31.20;;;20.10;;
21266;SDS011;10791;53.108;18.326;2022-09-09T18:00:28;32.23;;;21.90;;
21266;SDS011;10791;53.108;18.326;2022-09-09T18:05:32;31.13;;;21.57;;
21266;SDS011;10791;53.108;18.326;2022-09-09T18:10:36;33.50;;;21.93;;
21266;SDS011;10791;53.108;18.326;2022-09-09T18:15:39;30.27;;;22.83;;
21266;SDS011;10791;53.108;18.326;2022-09-09T18:21:00;37.47;;;22.53;;
21266;SDS011;10791;53.108;18.326;2022-09-09T18:26:10;38.70;;;24.77;;
21266;SDS011;10791;53.108;18.326;2022-09-09T18:31:16;36.87;;;24.17;;
21266;SDS011;10791;53.108;18.326;2022-09-09T18:36:25;36.17;;;23.13;;
21266;SDS011;10791;53.108;18.326;2022-09-09T18:41:32;38.57;;;24.97;;
21266;SDS011;10791;53.108;18.326;2022-09-09T18:46:38;37.43;;;23.73;;
21266;SDS011;10791;53.108;18.326;2022-09-09T18:51:44;39.37;;;25.27;;
21266;SDS011;10791;53.108;18.326;2022-09-09T18:56:48;38.40;;;25.43;;
21266;SDS011;10791;53.108;18.326;2022-09-09T19:01:53;40.33;;;26.43;;
21266;SDS011;10791;53.108;18.326;2022-09-09T19:06:56;44.00;;;25.97;;
21266;SDS011;10791;53.108;18.326;2022-09-09T19:12:00;39.53;;;25.47;;
21266;SDS011;10791;53.108;18.326;2022-09-09T19:17:05;39.57;;;24.77;;
21266;SDS011;10791;53.108;18.326;2022-09-09T19:22:11;45.73;;;29.37;;
21266;SDS011;10791;53.108;18.326;2022-09-09T19:27:16;49.17;;;28.63;;
21266;SDS011;10791;53.108;18.326;2022-09-09T19:32:22;43.17;;;28.57;;
21266;SDS011;10791;53.108;18.326;2022-09-09T19:37:46;50.53;;;30.60;;
21266;SDS011;10791;53.108;18.326;2022-09-09T19:42:51;48.77;;;31.70;;
21266;SDS011;10791;53.108;18.326;2022-09-09T19:47:56;53.30;;;31.43;;
21266;SDS011;10791;53.108;18.326;2022-09-09T19:53:04;55.43;;;32.83;;
21266;SDS011;10791;53.108;18.326;2022-09-09T19:58:08;50.40;;;33.83;;
21266;SDS011;10791;53.108;18.326;2022-09-09T20:03:11;56.20;;;34.93;;
21266;SDS011;10791;53.108;18.326;2022-09-09T20:08:21;57.47;;;34.80;;
21266;SDS011;10791;53.108;18.326;2022-09-09T20:13:24;61.17;;;39.17;;
21266;SDS011;10791;53.108;18.326;2022-09-09T20:18:29;61.17;;;38.03;;
21266;SDS011;10791;53.108;18.326;2022-09-09T20:23:34;60.90;;;39.67;;
21266;SDS011;10791;53.108;18.326;2022-09-09T20:28:39;62.90;;;37.83;;
21266;SDS011;10791;53.108;18.326;2022-09-09T20:33:44;58.47;;;37.77;;
21266;SDS011;10791;53.108;18.326;2022-09-09T20:38:49;64.57;;;40.10;;
21266;SDS011;10791;53.108;18.326;2022-09-09T20:44:00;67.33;;;41.13;;
21266;SDS011;10791;53.108;18.326;2022-09-09T20:49:06;65.93;;;39.97;;
21266;SDS011;10791;53.108;18.326;2022-09-09T20:54:13;68.60;;;40.80;;
21266;SDS011;10791;53.108;18.326;2022-09-09T20:59:26;71.63;;;41.60;;
21266;SDS011;10791;53.108;18.326;2022-09-09T21:04:31;73.10;;;39.87;;
21266;SDS011;10791;53.108;18.326;2022-09-09T21:09:34;65.50;;;39.73;;
21266;SDS011;10791;53.108;18.326;2022-09-09T21:14:38;69.47;;;39.67;;
21266;SDS011;10791;53.108;18.326;2022-09-09T21:19:44;66.67;;;39.67;;
21266;SDS011;10791;53.108;18.326;2022-09-09T21:24:49;69.43;;;40.07;;
21266;SDS011;10791;53.108;18.326;2022-09-09T21:29:52;72.77;;;39.13;;
21266;SDS011;10791;53.108;18.326;2022-09-09T21:34:56;70.43;;;39.60;;
21266;SDS011;10791;53.108;18.326;2022-09-09T21:40:01;63.80;;;37.53;;
21266;SDS011;10791;53.108;18.326;2022-09-09T21:45:04;71.37;;;39.07;;
21266;SDS011;10791;53.108;18.326;2022-09-09T21:50:08;67.73;;;38.80;;
21266;SDS011;10791;53.108;18.326;2022-09-09T21:55:12;67.43;;;37.63;;
21266;SDS011;10791;53.108;18.326;2022-09-09T22:00:17;63.07;;;37.90;;
21266;SDS011;10791;53.108;18.326;2022-09-09T22:05:20;68.37;;;38.53;;
21266;SDS011;10791;53.108;18.326;2022-09-09T22:10:24;68.77;;;38.87;;
21266;SDS011;10791;53.108;18.326;2022-09-09T22:15:31;68.03;;;36.70;;
21266;SDS011;10791;53.108;18.326;2022-09-09T22:20:38;61.60;;;36.77;;
21266;SDS011;10791;53.108;18.326;2022-09-09T22:25:43;64.93;;;35.80;;
21266;SDS011;10791;53.108;18.326;2022-09-09T22:30:46;70.70;;;37.93;;
21266;SDS011;10791;53.108;18.326;2022-09-09T22:35:50;58.93;;;35.10;;
21266;SDS011;10791;53.108;18.326;2022-09-09T22:40:54;64.07;;;34.20;;
21266;SDS011;10791;53.108;18.326;2022-09-09T22:46:01;64.80;;;35.40;;
21266;SDS011;10791;53.108;18.326;2022-09-09T22:51:06;69.60;;;36.60;;
21266;SDS011;10791;53.108;18.326;2022-09-09T22:56:17;68.77;;;36.47;;
21266;SDS011;10791;53.108;18.326;2022-09-09T23:01:21;61.07;;;34.50;;
21266;SDS011;10791;53.108;18.326;2022-09-09T23:06:27;66.07;;;36.93;;
21266;SDS011;10791;53.108;18.326;2022-09-09T23:11:32;72.93;;;34.97;;
21266;SDS011;10791;53.108;18.326;2022-09-09T23:16:40;64.60;;;33.43;;
21266;SDS011;10791;53.108;18.326;2022-09-09T23:21:45;69.77;;;36.53;;
21266;SDS011;10791;53.108;18.326;2022-09-09T23:26:50;64.97;;;35.90;;
21266;SDS011;10791;53.108;18.326;2022-09-09T23:31:54;71.00;;;38.27;;
21266;SDS011;10791;53.108;18.326;2022-09-09T23:36:58;76.37;;;40.23;;
21266;SDS011;10791;53.108;18.326;2022-09-09T23:42:01;75.87;;;41.00;;
21266;SDS011;10791;53.108;18.326;2022-09-09T23:47:07;74.93;;;39.07;;
21266;SDS011;10791;53.108;18.326;2022-09-09T23:52:11;86.10;;;40.70;;
21266;SDS011;10791;53.108;18.326;2022-09-09T23:57:15;83.17;;;40.33;;
